Time;durP1;ratioP1;P1;durP2;ratioP2;P2;SDS_P1;SDS_P2;PMS_P1;PMS_P2;Temp;Humidity;BMP_temperature;BMP_pressure;BME280_temperature;BME280_humidity;BME280_pressure;Samples;Min_cycle;Max_cycle;Signal;HPM_P1;HPM_P2
2022/08/24 00:00:39;;;;;;;;;;;20.00;99.90;;;;;;5074479;28;19919;-84
2022/08/24 00:03:06;;;;;;;;;;;20.10;99.90;;;;;;5074537;28;19931;-78
2022/08/24 00:05:31;;;;;;;;;;;20.20;99.90;;;;;;5074510;28;19909;-80
2022/08/24 00:07:57;;;;;;;;;;;20.20;99.90;;;;;;5074402;28;19915;-82
2022/08/24 00:10:23;;;;;;;;;;;20.20;99.90;;;;;;5074356;28;19915;-80
2022/08/24 00:12:49;;;;;;;;;;;20.20;99.90;;;;;;5074485;28;19915;-82
2022/08/24 00:15:15;;;;;;;;;;;20.10;99.90;;;;;;5074332;28;19987;-80
2022/08/24 00:17:41;;;;;;;;;;;20.10;99.90;;;;;;5056308;28;19908;-80
2022/08/24 00:20:08;;;;;;;;;;;20.00;99.90;;;;;;5074319;28;19916;-81
2022/08/24 00:22:34;;;;;;;;;;;20.00;99.90;;;;;;5074276;28;19920;-81
2022/08/24 00:25:00;;;;;;;;;;;20.00;99.90;;;;;;5074203;28;19908;-81
2022/08/24 00:27:26;;;;;;;;;;;19.90;99.90;;;;;;5074199;28;19931;-79
2022/08/24 00:29:52;;;;;;;;;;;19.90;99.90;;;;;;5074061;28;19913;-82
2022/08/24 00:32:18;;;;;;;;;;;19.80;99.90;;;;;;5074014;28;19908;-78
2022/08/24 00:34:43;;;;;;;;;;;19.90;99.90;;;;;;5073948;28;19955;-82
2022/08/24 00:37:09;;;;;;;;;;;19.80;99.90;;;;;;5055139;28;19947;-81
2022/08/24 00:39:35;;;;;;;;;;;20.00;99.90;;;;;;5073885;28;19948;-82
2022/08/24 00:42:00;;;;;;;;;;;20.00;99.90;;;;;;5073882;28;19916;-80
2022/08/24 00:44:26;;;;;;;;;;;20.10;99.90;;;;;;5055770;28;19912;-81
2022/08/24 00:46:54;;;;;;;;;;;20.20;99.90;;;;;;5073864;28;19913;-80
2022/08/24 00:49:24;;;;;;;;;;;20.20;99.90;;;;;;5074132;28;19916;-78
2022/08/24 00:52:08;;;;;;;;;;;20.20;99.90;;;;;;5073765;28;20003;-79
2022/08/24 00:54:37;;;;;;;;;;;20.20;99.90;;;;;;5073752;28;19934;-82
2022/08/24 00:57:05;;;;;;;;;;;20.30;99.90;;;;;;5073914;28;19908;-80
2022/08/24 00:59:35;;;;;;;;;;;20.30;99.90;;;;;;5056185;28;19909;-80
2022/08/24 01:02:04;;;;;;;;;;;20.30;99.90;;;;;;5073710;28;19995;-79
2022/08/24 01:04:33;;;;;;;;;;;20.20;99.90;;;;;;5073640;28;20360;-81
2022/08/24 01:06:58;;;;;;;;;;;20.20;99.90;;;;;;5073616;28;19908;-80
2022/08/24 01:09:24;;;;;;;;;;;20.30;99.90;;;;;;5073842;28;20373;-82
2022/08/24 01:11:50;;;;;;;;;;;20.30;99.90;;;;;;5073732;28;19908;-80
2022/08/24 01:14:17;;;;;;;;;;;20.40;99.90;;;;;;5073593;28;19915;-78
2022/08/24 01:19:27;;;;;;;;;;;20.40;99.90;;;;;;5073380;28;19916;-83
2022/08/24 01:22:28;;;;;;;;;;;20.40;99.90;;;;;;5073414;28;19920;-80
2022/08/24 01:24:53;;;;;;;;;;;20.40;99.90;;;;;;5011755;28;20301;-81
2022/08/24 01:27:19;;;;;;;;;;;20.50;99.90;;;;;;5060479;28;19912;-81
2022/08/24 01:29:45;;;;;;;;;;;20.60;99.90;;;;;;5073449;28;19908;-79
2022/08/24 01:32:12;;;;;;;;;;;20.60;99.90;;;;;;5073778;28;19909;-79
2022/08/24 01:34:38;;;;;;;;;;;20.50;99.90;;;;;;5073460;28;19916;-80
2022/08/24 01:37:06;;;;;;;;;;;20.40;99.90;;;;;;5073616;28;19913;-80
2022/08/24 01:39:36;;;;;;;;;;;20.20;99.90;;;;;;5073257;28;19908;-82
2022/08/24 01:42:03;;;;;;;;;;;19.90;99.90;;;;;;5073259;28;19931;-81
2022/08/24 01:44:32;;;;;;;;;;;19.80;99.90;;;;;;5073215;28;19915;-79
2022/08/24 01:46:58;;;;;;;;;;;19.90;99.90;;;;;;5073342;28;19958;-81
2022/08/24 01:49:25;;;;;;;;;;;19.90;99.90;;;;;;5077454;28;19993;-81
2022/08/24 01:51:51;;;;;;;;;;;20.10;99.90;;;;;;5077030;28;19909;-80
2022/08/24 01:54:16;;;;;;;;;;;20.30;99.90;;;;;;5058993;28;19954;-80
2022/08/24 01:56:42;;;;;;;;;;;20.30;99.90;;;;;;5076975;28;19908;-80
2022/08/24 01:59:08;;;;;;;;;;;20.60;99.90;;;;;;5059521;28;19912;-82
2022/08/24 02:01:36;;;;;;;;;;;20.70;99.90;;;;;;5076969;28;19927;-80
2022/08/24 02:04:03;;;;;;;;;;;20.80;99.90;;;;;;5076809;28;19908;-81
2022/08/24 02:06:28;;;;;;;;;;;20.80;99.90;;;;;;5076918;28;20000;-79
2022/08/24 02:08:54;;;;;;;;;;;20.80;99.90;;;;;;5058789;28;19995;-80
2022/08/24 02:11:20;;;;;;;;;;;20.60;99.90;;;;;;5076680;28;19963;-80
2022/08/24 02:13:46;;;;;;;;;;;20.60;99.90;;;;;;5076699;28;20337;-81
2022/08/24 02:16:13;;;;;;;;;;;20.60;99.90;;;;;;5076711;28;19958;-79
2022/08/24 02:18:39;;;;;;;;;;;20.50;99.90;;;;;;5076565;28;19909;-81
2022/08/24 02:21:07;;;;;;;;;;;20.50;99.90;;;;;;5076923;28;19913;-80
2022/08/24 02:23:33;;;;;;;;;;;20.50;99.90;;;;;;5058489;28;19909;-83
2022/08/24 02:25:59;;;;;;;;;;;20.60;99.90;;;;;;5058403;28;20455;-79
2022/08/24 02:28:25;;;;;;;;;;;20.50;99.90;;;;;;5076597;28;19951;-83
2022/08/24 02:30:52;;;;;;;;;;;20.50;99.90;;;;;;5076344;28;19952;-82
2022/08/24 02:33:17;;;;;;;;;;;20.50;99.90;;;;;;5076275;28;20326;-80
2022/08/24 02:35:43;;;;;;;;;;;20.50;99.90;;;;;;5076255;28;19988;-79
2022/08/24 02:38:09;;;;;;;;;;;20.40;99.90;;;;;;5076767;28;19909;-79
2022/08/24 02:40:35;;;;;;;;;;;20.30;99.90;;;;;;5076085;28;19919;-79
2022/08/24 02:43:00;;;;;;;;;;;20.40;99.90;;;;;;5076102;28;19909;-81
2022/08/24 02:45:26;;;;;;;;;;;20.50;99.90;;;;;;5076089;28;19916;-79
2022/08/24 02:47:52;;;;;;;;;;;20.50;99.90;;;;;;5076139;28;19964;-82
2022/08/24 02:50:18;;;;;;;;;;;20.50;99.90;;;;;;5058093;28;20288;-81
2022/08/24 02:52:44;;;;;;;;;;;20.50;99.90;;;;;;5075983;28;19912;-81
2022/08/24 02:55:12;;;;;;;;;;;20.40;99.90;;;;;;5075931;28;19908;-81
2022/08/24 02:57:38;;;;;;;;;;;20.50;99.90;;;;;;5075889;28;19935;-82
2022/08/24 03:00:05;;;;;;;;;;;20.50;99.90;;;;;;5075329;28;19916;-80
2022/08/24 03:02:30;;;;;;;;;;;20.50;99.90;;;;;;5058219;28;19995;-82
2022/08/24 03:04:56;;;;;;;;;;;20.50;99.90;;;;;;5075783;28;19962;-80
2022/08/24 03:07:21;;;;;;;;;;;20.60;99.90;;;;;;5075700;28;19916;-83
2022/08/24 03:09:47;;;;;;;;;;;20.60;99.90;;;;;;5075658;28;19915;-80
2022/08/24 03:12:13;;;;;;;;;;;20.60;99.90;;;;;;5057922;28;19912;-82
2022/08/24 03:14:39;;;;;;;;;;;20.60;99.90;;;;;;5075763;28;19908;-81
2022/08/24 03:17:05;;;;;;;;;;;20.60;99.90;;;;;;5057573;28;19909;-82
2022/08/24 03:19:30;;;;;;;;;;;20.60;99.90;;;;;;5075469;28;19915;-81
2022/08/24 03:21:56;;;;;;;;;;;20.60;99.90;;;;;;5075663;28;19919;-81
2022/08/24 03:24:22;;;;;;;;;;;20.60;99.90;;;;;;5075350;28;19951;-80
2022/08/24 03:26:47;;;;;;;;;;;20.60;99.90;;;;;;5075318;28;20292;-79
2022/08/24 03:29:14;;;;;;;;;;;20.60;99.90;;;;;;5075225;28;20383;-82
2022/08/24 03:31:40;;;;;;;;;;;20.60;99.90;;;;;;5075167;28;19999;-81
2022/08/24 03:34:05;;;;;;;;;;;20.60;99.90;;;;;;5057222;28;19940;-81
2022/08/24 03:36:31;;;;;;;;;;;20.60;99.90;;;;;;5075144;28;19908;-78
2022/08/24 03:38:57;;;;;;;;;;;20.50;99.90;;;;;;5075123;28;20019;-82
2022/08/24 03:41:22;;;;;;;;;;;20.40;99.90;;;;;;5074929;28;19919;-81
2022/08/24 03:43:48;;;;;;;;;;;20.30;99.90;;;;;;5074988;28;19909;-79
2022/08/24 03:46:22;;;;;;;;;;;20.20;99.90;;;;;;5056955;28;19912;-81
2022/08/24 03:48:48;;;;;;;;;;;19.90;99.90;;;;;;5074487;28;20016;-79
2022/08/24 03:51:14;;;;;;;;;;;19.90;99.90;;;;;;5075217;28;19960;-79
2022/08/24 03:53:40;;;;;;;;;;;20.00;99.90;;;;;;5074922;28;19909;-81
2022/08/24 03:56:06;;;;;;;;;;;20.10;99.90;;;;;;5074757;28;20307;-81
2022/08/24 03:58:34;;;;;;;;;;;20.20;99.90;;;;;;5074664;28;19908;-79
2022/08/24 04:01:00;;;;;;;;;;;20.20;99.90;;;;;;5075083;28;19999;-78
2022/08/24 04:03:27;;;;;;;;;;;20.20;99.90;;;;;;5074966;28;19951;-79
2022/08/24 04:05:52;;;;;;;;;;;20.30;99.90;;;;;;5074497;28;20386;-80
2022/08/24 04:08:19;;;;;;;;;;;20.30;99.90;;;;;;5074451;28;19940;-82
2022/08/24 04:10:45;;;;;;;;;;;20.30;99.90;;;;;;5074279;28;19908;-79
2022/08/24 04:13:10;;;;;;;;;;;20.40;99.90;;;;;;5074393;28;20392;-80
2022/08/24 04:15:40;;;;;;;;;;;20.40;99.90;;;;;;5074303;28;19912;-82
2022/08/24 04:18:06;;;;;;;;;;;20.40;99.90;;;;;;5074436;28;19940;-81
2022/08/24 04:20:36;;;;;;;;;;;20.40;99.90;;;;;;5056229;28;19986;-82
2022/08/24 04:23:02;;;;;;;;;;;20.30;99.90;;;;;;5074336;28;19931;-79
2022/08/24 04:25:28;;;;;;;;;;;20.30;99.90;;;;;;5074148;28;20360;-79
2022/08/24 04:27:53;;;;;;;;;;;20.20;99.90;;;;;;5074096;28;19918;-79
2022/08/24 04:30:19;;;;;;;;;;;20.20;99.90;;;;;;5074353;28;19908;-79
2022/08/24 04:32:44;;;;;;;;;;;20.30;99.90;;;;;;5073998;28;19915;-80
2022/08/24 04:35:10;;;;;;;;;;;20.40;99.90;;;;;;5074021;28;19909;-82
2022/08/24 04:37:35;;;;;;;;;;;20.40;99.90;;;;;;5073975;28;20003;-82
2022/08/24 04:40:02;;;;;;;;;;;20.30;99.90;;;;;;5073859;28;20274;-81
2022/08/24 04:42:27;;;;;;;;;;;20.40;99.90;;;;;;5073921;28;19954;-83
2022/08/24 04:44:53;;;;;;;;;;;20.30;99.90;;;;;;5074412;28;20091;-80
2022/08/24 04:47:19;;;;;;;;;;;20.30;99.90;;;;;;5073578;28;20385;-79
2022/08/24 04:49:44;;;;;;;;;;;20.20;99.90;;;;;;5073994;28;20315;-80
2022/08/24 04:52:10;;;;;;;;;;;20.10;99.90;;;;;;5073832;28;19908;-82
2022/08/24 04:54:35;;;;;;;;;;;20.00;99.90;;;;;;5073967;28;19909;-78
2022/08/24 04:57:01;;;;;;;;;;;19.90;99.90;;;;;;5073767;28;20003;-81
2022/08/24 04:59:27;;;;;;;;;;;19.90;99.90;;;;;;5074407;28;19958;-78
2022/08/24 05:01:53;;;;;;;;;;;19.80;99.90;;;;;;5073709;28;20356;-81
2022/08/24 05:04:18;;;;;;;;;;;19.70;99.90;;;;;;5073888;28;19908;-79
2022/08/24 05:06:44;;;;;;;;;;;19.80;99.90;;;;;;5074212;28;20003;-79
2022/08/24 05:09:09;;;;;;;;;;;19.90;99.90;;;;;;5073575;28;19909;-81
2022/08/24 05:11:36;;;;;;;;;;;20.00;99.90;;;;;;5073584;28;20348;-81
2022/08/24 05:14:02;;;;;;;;;;;20.00;99.90;;;;;;5073834;28;20265;-81
2022/08/24 05:16:28;;;;;;;;;;;20.10;99.90;;;;;;5055580;28;20276;-78
2022/08/24 05:18:54;;;;;;;;;;;20.20;99.90;;;;;;5073527;28;19912;-80
2022/08/24 05:21:20;;;;;;;;;;;20.20;99.90;;;;;;5075892;28;19961;-78
2022/08/24 05:23:46;;;;;;;;;;;20.20;99.90;;;;;;5077746;28;20403;-79
2022/08/24 05:26:14;;;;;;;;;;;20.30;99.90;;;;;;5077879;28;19917;-81
2022/08/24 05:28:40;;;;;;;;;;;20.30;99.90;;;;;;5077701;28;19970;-79
2022/08/24 05:31:10;;;;;;;;;;;20.40;99.90;;;;;;5077543;28;19912;-81
2022/08/24 05:33:36;;;;;;;;;;;20.30;99.90;;;;;;5077676;28;19962;-82
2022/08/24 05:36:03;;;;;;;;;;;20.40;99.90;;;;;;5077410;28;20311;-81
2022/08/24 05:38:29;;;;;;;;;;;20.50;99.90;;;;;;5077439;28;19909;-79
2022/08/24 05:40:54;;;;;;;;;;;20.40;99.90;;;;;;5077233;28;19935;-80
2022/08/24 05:43:20;;;;;;;;;;;20.40;99.90;;;;;;5077191;28;19973;-79
2022/08/24 05:45:46;;;;;;;;;;;20.50;99.90;;;;;;5077406;28;19916;-82
2022/08/24 05:48:11;;;;;;;;;;;20.40;99.90;;;;;;5077185;28;19920;-81
2022/08/24 05:50:37;;;;;;;;;;;20.50;99.90;;;;;;5077210;28;19909;-81
2022/08/24 05:53:03;;;;;;;;;;;20.60;99.90;;;;;;5076998;28;19952;-81
2022/08/24 05:55:29;;;;;;;;;;;20.60;99.90;;;;;;5077061;28;19999;-82
2022/08/24 05:57:55;;;;;;;;;;;20.70;99.90;;;;;;5077347;28;19908;-82
2022/08/24 06:00:22;;;;;;;;;;;20.70;99.90;;;;;;5077443;28;19913;-80
2022/08/24 06:02:51;;;;;;;;;;;20.70;99.90;;;;;;5076945;28;20291;-81
2022/08/24 06:05:17;;;;;;;;;;;20.90;99.90;;;;;;5076903;28;20288;-79
2022/08/24 06:07:42;;;;;;;;;;;20.90;99.90;;;;;;5076972;28;19908;-80
2022/08/24 06:10:08;;;;;;;;;;;20.90;99.90;;;;;;5076827;28;19914;-82
2022/08/24 06:12:35;;;;;;;;;;;20.90;99.90;;;;;;5058735;28;20334;-79
2022/08/24 06:15:00;;;;;;;;;;;21.00;99.90;;;;;;5076621;28;19961;-81
2022/08/24 06:17:26;;;;;;;;;;;20.90;99.90;;;;;;5076614;28;19912;-80
2022/08/24 06:19:52;;;;;;;;;;;21.00;99.90;;;;;;5076682;28;19908;-80
2022/08/24 06:22:17;;;;;;;;;;;21.00;99.90;;;;;;5076530;28;19908;-79
2022/08/24 06:27:27;;;;;;;;;;;21.10;99.90;;;;;;5076652;28;19915;-80
2022/08/24 06:30:02;;;;;;;;;;;20.90;99.90;;;;;;5076299;28;19909;-80
2022/08/24 06:32:28;;;;;;;;;;;21.00;99.90;;;;;;5076611;28;19916;-80
2022/08/24 06:34:57;;;;;;;;;;;21.10;99.90;;;;;;5074955;28;19909;-82
2022/08/24 06:37:25;;;;;;;;;;;21.30;99.90;;;;;;5076281;28;20276;-81
2022/08/24 06:39:51;;;;;;;;;;;21.30;99.90;;;;;;5058161;28;19999;-82
2022/08/24 06:42:17;;;;;;;;;;;21.40;99.90;;;;;;5076141;28;19908;-80
2022/08/24 06:44:43;;;;;;;;;;;21.60;99.90;;;;;;5076044;28;20348;-80
2022/08/24 06:47:08;;;;;;;;;;;21.90;99.90;;;;;;5075867;28;19920;-78
2022/08/24 06:49:36;;;;;;;;;;;22.10;99.90;;;;;;5076343;28;19995;-80
2022/08/24 06:52:03;;;;;;;;;;;22.10;99.90;;;;;;5075958;28;19909;-80
2022/08/24 06:54:29;;;;;;;;;;;22.20;99.90;;;;;;5075891;28;19947;-81
2022/08/24 06:56:55;;;;;;;;;;;22.20;99.90;;;;;;5075853;28;20280;-82
2022/08/24 06:59:20;;;;;;;;;;;22.40;99.90;;;;;;5076713;28;20000;-80
2022/08/24 07:01:46;;;;;;;;;;;22.60;99.90;;;;;;5075706;28;20011;-81
2022/08/24 07:04:12;;;;;;;;;;;22.70;99.90;;;;;;5075765;28;19909;-80
2022/08/24 07:06:37;;;;;;;;;;;22.80;99.90;;;;;;5075706;28;19908;-79
2022/08/24 07:09:04;;;;;;;;;;;23.00;99.90;;;;;;5075804;28;19971;-80
2022/08/24 07:11:31;;;;;;;;;;;23.10;99.90;;;;;;5075734;28;19917;-82
2022/08/24 07:13:56;;;;;;;;;;;23.00;99.90;;;;;;5075540;28;20376;-82
2022/08/24 07:16:22;;;;;;;;;;;22.90;99.90;;;;;;5075634;28;20038;-81
2022/08/24 07:18:48;;;;;;;;;;;22.80;99.90;;;;;;5075496;28;20284;-80
2022/08/24 07:21:13;;;;;;;;;;;23.10;99.90;;;;;;5075366;28;20083;-81
2022/08/24 07:23:39;;;;;;;;;;;23.30;99.90;;;;;;5075718;28;19916;-80
2022/08/24 07:26:06;;;;;;;;;;;23.00;99.90;;;;;;5075291;28;19908;-80
2022/08/24 07:28:34;;;;;;;;;;;23.00;99.90;;;;;;5075282;28;19958;-80
2022/08/24 07:31:00;;;;;;;;;;;23.50;99.90;;;;;;5075182;28;20000;-83
2022/08/24 07:33:26;;;;;;;;;;;23.90;99.90;;;;;;5075206;28;19931;-79
2022/08/24 07:35:51;;;;;;;;;;;24.00;99.90;;;;;;5075093;28;20284;-78
2022/08/24 07:38:20;;;;;;;;;;;24.00;99.90;;;;;;5075586;28;20329;-80
2022/08/24 07:40:49;;;;;;;;;;;24.10;99.90;;;;;;5076986;28;20410;-82
2022/08/24 07:43:16;;;;;;;;;;;24.40;99.90;;;;;;5075086;28;19916;-83
2022/08/24 07:45:42;;;;;;;;;;;24.70;99.90;;;;;;5074646;28;19912;-81
2022/08/24 07:48:08;;;;;;;;;;;24.50;99.90;;;;;;5074645;28;19984;-82
2022/08/24 07:50:33;;;;;;;;;;;24.80;99.90;;;;;;5074737;28;20054;-83
2022/08/24 07:52:59;;;;;;;;;;;25.10;99.90;;;;;;5074964;28;19915;-79
2022/08/24 07:55:25;;;;;;;;;;;25.20;99.90;;;;;;5074653;28;20392;-78
2022/08/24 07:57:50;;;;;;;;;;;25.20;99.90;;;;;;5074729;28;19958;-79
2022/08/24 08:00:18;;;;;;;;;;;25.40;99.90;;;;;;5075345;28;19913;-80
2022/08/24 08:02:45;;;;;;;;;;;25.70;99.90;;;;;;5074579;28;19912;-80
2022/08/24 08:05:15;;;;;;;;;;;25.90;99.90;;;;;;5074674;28;19908;-82
2022/08/24 08:07:41;;;;;;;;;;;26.30;99.90;;;;;;5074465;28;19908;-80
2022/08/24 08:10:10;;;;;;;;;;;27.20;99.90;;;;;;5074511;28;19915;-80
2022/08/24 08:12:36;;;;;;;;;;;27.30;99.90;;;;;;5074426;28;19974;-82
2022/08/24 08:15:02;;;;;;;;;;;29.30;99.90;;;;;;5074373;28;19913;-79
2022/08/24 08:17:28;;;;;;;;;;;29.80;99.90;;;;;;5074430;28;19908;-80
2022/08/24 08:19:53;;;;;;;;;;;31.30;99.90;;;;;;5074202;28;19936;-80
2022/08/24 08:25:06;;;;;;;;;;;30.30;99.90;;;;;;5074340;28;19930;-80
2022/08/24 08:27:31;;;;;;;;;;;29.30;99.90;;;;;;5074164;28;20365;-81
2022/08/24 08:29:57;;;;;;;;;;;29.30;99.90;;;;;;5074082;28;19931;-79
2022/08/24 08:32:23;;;;;;;;;;;31.90;99.90;;;;;;5074060;28;19909;-82
2022/08/24 08:34:48;;;;;;;;;;;31.60;99.90;;;;;;5074042;28;19908;-81
2022/08/24 08:37:14;;;;;;;;;;;32.40;99.90;;;;;;5074164;28;19993;-82
2022/08/24 08:39:40;;;;;;;;;;;32.00;99.90;;;;;;5073984;28;20299;-82
2022/08/24 08:42:25;;;;;;;;;;;33.50;99.90;;;;;;5074153;28;19912;-83
2022/08/24 08:44:53;;;;;;;;;;;35.30;97.80;;;;;;5073992;28;19951;-83
2022/08/24 08:47:22;;;;;;;;;;;36.70;94.60;;;;;;5073718;28;19916;-85
2022/08/24 08:50:00;;;;;;;;;;;38.30;93.30;;;;;;5073851;28;20429;-82
2022/08/24 08:52:38;;;;;;;;;;;38.60;90.80;;;;;;5055788;28;20022;-82
2022/08/24 08:55:20;;;;;;;;;;;38.60;88.70;;;;;;5073907;28;19965;-85
2022/08/24 08:57:54;;;;;;;;;;;39.30;86.80;;;;;;5073075;28;19909;-84
2022/08/24 09:00:23;;;;;;;;;;;39.60;85.40;;;;;;5073170;28;20213;-80
2022/08/24 09:02:48;;;;;;;;;;;40.30;84.20;;;;;;5073906;28;20357;-82
2022/08/24 09:05:32;;;;;;;;;;;39.80;82.60;;;;;;5073626;28;19920;-83
2022/08/24 09:08:01;;;;;;;;;;;39.80;82.60;;;;;;5073648;28;19966;-81
2022/08/24 09:10:47;;;;;;;;;;;40.00;80.90;;;;;;5073614;28;19915;-85
2022/08/24 09:13:16;;;;;;;;;;;40.70;80.40;;;;;;5063332;28;19909;-82
2022/08/24 09:16:03;;;;;;;;;;;40.30;79.10;;;;;;5073646;28;20258;-83
2022/08/24 09:18:32;;;;;;;;;;;40.50;79.20;;;;;;5073561;28;19912;-84
2022/08/24 09:21:06;;;;;;;;;;;40.70;78.10;;;;;;5073678;28;20347;-85
2022/08/24 09:23:44;;;;;;;;;;;40.50;78.00;;;;;;5073714;28;19916;-82
2022/08/24 09:26:18;;;;;;;;;;;41.00;77.80;;;;;;5073487;28;20357;-84
2022/08/24 09:28:52;;;;;;;;;;;41.30;76.80;;;;;;5073450;28;19962;-82
2022/08/24 09:31:20;;;;;;;;;;;41.80;76.50;;;;;;5073657;28;19915;-83
2022/08/24 09:33:48;;;;;;;;;;;41.20;75.50;;;;;;5073436;28;19966;-81
2022/08/24 09:36:40;;;;;;;;;;;41.80;75.20;;;;;;5073504;28;19912;-80
2022/08/24 09:39:13;;;;;;;;;;;42.20;73.80;;;;;;5070287;28;19908;-83
2022/08/24 09:41:39;;;;;;;;;;;42.90;73.70;;;;;;5055066;28;19913;-82
2022/08/24 09:44:19;;;;;;;;;;;44.50;71.50;;;;;;5055261;28;19919;-82
2022/08/24 09:46:45;;;;;;;;;;;44.40;70.60;;;;;;5073256;28;19909;-87
2022/08/24 09:49:23;;;;;;;;;;;45.20;69.10;;;;;;5073272;28;19917;-83
2022/08/24 09:52:11;;;;;;;;;;;43.60;69.50;;;;;;5073393;28;19912;-81
2022/08/24 09:54:37;;;;;;;;;;;43.10;71.10;;;;;;5044390;28;19908;-82
2022/08/24 09:57:29;;;;;;;;;;;43.70;70.80;;;;;;5073203;28;20288;-84
2022/08/24 09:59:55;;;;;;;;;;;44.80;69.10;;;;;;5073769;28;19912;-83
2022/08/24 10:02:48;;;;;;;;;;;45.50;68.70;;;;;;5073015;28;19916;-81
2022/08/24 10:05:33;;;;;;;;;;;42.60;70.20;;;;;;5073092;28;19920;-80
2022/08/24 10:08:02;;;;;;;;;;;40.70;72.80;;;;;;5073563;28;19909;-82
2022/08/24 10:10:48;;;;;;;;;;;38.80;75.50;;;;;;5076834;28;19908;-82
2022/08/24 10:13:32;;;;;;;;;;;36.60;78.30;;;;;;5076740;28;19912;-81
2022/08/24 10:16:16;;;;;;;;;;;35.10;80.70;;;;;;5076993;28;19908;-82
2022/08/24 10:18:45;;;;;;;;;;;35.10;81.30;;;;;;5076646;28;19908;-81
2022/08/24 10:21:19;;;;;;;;;;;34.70;82.70;;;;;;5076426;28;19919;-84
2022/08/24 10:23:57;;;;;;;;;;;34.50;83.40;;;;;;5076953;28;19916;-84
2022/08/24 10:26:42;;;;;;;;;;;35.00;83.80;;;;;;5076810;28;19915;-81
2022/08/24 10:29:10;;;;;;;;;;;38.20;81.00;;;;;;5076648;28;19912;-81
2022/08/24 10:31:42;;;;;;;;;;;38.40;79.20;;;;;;5076448;28;19908;-82
2022/08/24 10:34:17;;;;;;;;;;;38.00;79.60;;;;;;5076575;28;19912;-82
2022/08/24 10:36:51;;;;;;;;;;;38.90;77.90;;;;;;5058414;28;20368;-84
2022/08/24 10:39:42;;;;;;;;;;;40.90;76.80;;;;;;5076317;28;19954;-85
2022/08/24 10:45:10;;;;;;;;;;;44.40;73.00;;;;;;5076152;28;19939;-81
2022/08/24 10:47:35;;;;;;;;;;;45.30;71.40;;;;;;5076151;28;19916;-82
2022/08/24 10:50:12;;;;;;;;;;;42.90;73.00;;;;;;5076167;28;20371;-81
2022/08/24 10:52:37;;;;;;;;;;;43.20;74.10;;;;;;5076228;28;19909;-80
2022/08/24 10:55:24;;;;;;;;;;;45.40;71.00;;;;;;5076034;28;20414;-81
2022/08/24 10:57:52;;;;;;;;;;;;;;;;;;5076218;28;19931;-82
2022/08/24 11:00:20;;;;;;;;;;;;;;;;;;5076402;28;19941;-83
2022/08/24 11:02:46;;;;;;;;;;;;;;;;;;5057865;28;19995;-81
2022/08/24 11:05:12;;;;;;;;;;;;;;;;;;5075747;28;19951;-85
2022/08/24 11:07:38;;;;;;;;;;;;;;;;;;5076048;28;19908;-84
2022/08/24 11:10:05;;;;;;;;;;;;;;;;;;5076342;28;19912;-81
2022/08/24 11:12:31;;;;;;;;;;;;;;;;;;5075859;28;19909;-80
2022/08/24 11:14:57;;;;;;;;;;;;;;;;;;5075581;28;20395;-80
2022/08/24 11:17:23;;;;;;;;;;;;;;;;;;5075797;28;20011;-82
2022/08/24 11:19:49;;;;;;;;;;;;;;;;;;5074824;28;20253;-79
2022/08/24 11:22:15;;;;;;;;;;;;;;;;;;5075541;28;20380;-83
2022/08/24 11:24:41;;;;;;;;;;;;;;;;;;5075654;28;19916;-79
2022/08/24 11:27:07;;;;;;;;;;;;;;;;;;5079105;28;19908;-79
2022/08/24 11:29:33;;;;;;;;;;;;;;;;;;5082053;28;19916;-81
2022/08/24 11:31:59;;;;;;;;;;;;;;;;;;5082923;28;19951;-81
2022/08/24 11:34:25;;;;;;;;;;;;;;;;;;5081766;28;19919;-80
2022/08/24 11:36:51;;;;;;;;;;;;;;;;;;5083437;28;20007;-80
2022/08/24 11:39:17;;;;;;;;;;;;;;;;;;5083779;28;19975;-80
2022/08/24 11:41:43;;;;;;;;;;;;;;;;;;5083388;28;19966;-81
2022/08/24 11:44:08;;;;;;;;;;;;;;;;;;5081340;28;19912;-80
2022/08/24 11:46:34;;;;;;;;;;;;;;;;;;5074972;28;20036;-81
2022/08/24 11:49:00;;;;;;;;;;;;;;;;;;5074382;28;19923;-80
2022/08/24 11:51:26;;;;;;;;;;;;;;;;;;5075049;28;19909;-84
2022/08/24 11:53:52;;;;;;;;;;;;;;;;;;5074737;28;20297;-83
2022/08/24 11:56:18;;;;;;;;;;;;;;;;;;5074726;28;19917;-83
2022/08/24 11:58:44;;;;;;;;;;;;;;;;;;5074765;28;19916;-81
2022/08/24 12:01:10;;;;;;;;;;;;;;;;;;5075179;28;20339;-81
2022/08/24 12:03:36;;;;;;;;;;;;;;;;;;5074899;28;20369;-80
2022/08/24 12:06:02;;;;;;;;;;;;;;;;;;5075254;28;19965;-81
2022/08/24 12:08:28;;;;;;;;;;;;;;;;;;5074692;28;19908;-82
2022/08/24 12:10:54;;;;;;;;;;;;;;;;;;5074935;28;19919;-82
2022/08/24 12:13:19;;;;;;;;;;;;;;;;;;5075109;28;19909;-81
2022/08/24 12:15:45;;;;;;;;;;;;;;;;;;5074553;28;19915;-82
2022/08/24 12:18:11;;;;;;;;;;;;;;;;;;5074365;28;20284;-82
2022/08/24 12:20:37;;;;;;;;;;;;;;;;;;5074267;28;20337;-85
2022/08/24 12:23:03;;;;;;;;;;;;;;;;;;5056207;28;19954;-82
2022/08/24 12:28:14;;;;;;;;;;;;;;;;;;5073928;28;19915;-83
2022/08/24 12:30:40;;;;;;;;;;;;;;;;;;5074067;28;19913;-82
2022/08/24 12:33:06;;;;;;;;;;;;;;;;;;5056047;28;19915;-84
2022/08/24 12:35:32;;;;;;;;;;;;;;;;;;5074047;28;19916;-83
2022/08/24 12:37:58;;;;;;;;;;;;;;;;;;5074233;28;19912;-83
2022/08/24 12:40:24;;;;;;;;;;;;;;;;;;5073931;28;19995;-84
2022/08/24 12:42:50;;;;;;;;;;;;;;;;;;5073901;28;19912;-82
2022/08/24 12:45:16;;;;;;;;;;;;;;;;;;5073767;28;19965;-83
2022/08/24 12:47:42;;;;;;;;;;;;;;;;;;5073957;28;20287;-81
2022/08/24 12:50:08;;;;;;;;;;;;;;;;;;5073786;28;19971;-81
2022/08/24 12:52:34;;;;;;;;;;;;;;;;;;5073857;28;19915;-82
2022/08/24 12:55:00;;;;;;;;;;;;;;;;;;5073773;28;20276;-81
2022/08/24 12:57:26;;;;;;;;;;;;;;;;;;5073869;28;19916;-84
2022/08/24 12:59:52;;;;;;;;;;;;;;;;;;5073772;28;19908;-82
2022/08/24 13:02:18;;;;;;;;;;;;;;;;;;5056085;28;20450;-81
2022/08/24 13:04:44;;;;;;;;;;;;;;;;;;5073663;28;19944;-83
2022/08/24 13:07:09;;;;;;;;;;;;;;;;;;5073662;28;19908;-82
2022/08/24 13:09:35;;;;;;;;;;;;;;;;;;5055650;28;20025;-82
2022/08/24 13:12:01;;;;;;;;;;;;;;;;;;5073558;28;19912;-83
2022/08/24 13:14:27;;;;;;;;;;;;;;;;;;5073568;28;19963;-83
2022/08/24 13:16:53;;;;;;;;;;;;;;;;;;5074020;28;19908;-84
2022/08/24 13:19:19;;;;;;;;;;;;;;;;;;5073849;28;19909;-80
2022/08/24 13:21:45;;;;;;;;;;;;;;;;;;5073494;28;19954;-81
2022/08/24 13:24:11;;;;;;;;;;;;;;;;;;5073553;28;19962;-79
2022/08/24 13:26:37;;;;;;;;;;;;;;;;;;5073502;28;19916;-81
2022/08/24 13:29:04;;;;;;;;;;;;;;;;;;5073445;28;19908;-79
2022/08/24 13:31:30;;;;;;;;;;;;;;;;;;5055369;28;20365;-81
2022/08/24 13:33:56;;;;;;;;;;;;;;;;;;5073622;28;19909;-80
2022/08/24 13:36:23;;;;;;;;;;;;;;;;;;5073422;28;20426;-79
2022/08/24 13:38:49;;;;;;;;;;;;;;;;;;5073365;28;19908;-82
2022/08/24 13:41:15;;;;;;;;;;;;;;;;;;5073659;28;20364;-83
2022/08/24 13:43:41;;;;;;;;;;;;;;;;;;5075304;28;19916;-80
2022/08/24 13:46:07;;;;;;;;;;;;;;;;;;5077174;28;20278;-83
2022/08/24 13:48:33;;;;;;;;;;;;;;;;;;5076858;28;20380;-82
2022/08/24 13:50:59;;;;;;;;;;;;;;;;;;5077375;28;19916;-84
2022/08/24 13:53:25;;;;;;;;;;;;;;;;;;5077125;28;19958;-82
2022/08/24 13:55:51;;;;;;;;;;;;;;;;;;5077144;28;20009;-81
2022/08/24 13:58:17;;;;;;;;;;;;;;;;;;5076990;28;19964;-81
2022/08/24 14:00:43;;;;;;;;;;;;;;;;;;5078014;28;19909;-81
2022/08/24 14:03:09;;;;;;;;;;;;;;;;;;5077205;28;20361;-81
2022/08/24 14:05:37;;;;;;;;;;;;;;;;;;5076999;28;19953;-81
2022/08/24 14:08:03;;;;;;;;;;;;;;;;;;5076896;28;20286;-80
2022/08/24 14:10:28;;;;;;;;;;;;;;;;;;5076661;28;19919;-82
2022/08/24 14:12:55;;;;;;;;;;;;;;;;;;5076774;28;20072;-80
2022/08/24 14:15:21;;;;;;;;;;;;;;;;;;5077058;28;19909;-81
2022/08/24 14:17:53;;;;;;;;;;;;;;;;;;5076722;28;19915;-83
2022/08/24 14:20:19;;;;;;;;;;;;;;;;;;5076672;28;19909;-81
2022/08/24 14:22:45;;;;;;;;;;;;;;;;;;5058627;28;19912;-81
2022/08/24 14:25:11;;;;;;;;;;;;;;;;;;5076855;28;19946;-82
2022/08/24 14:27:37;;;;;;;;;;;;;;;;;;5027801;28;19921;-81
2022/08/24 14:30:03;;;;;;;;;;;;;;;;;;5016355;28;19963;-83
2022/08/24 14:32:29;;;;;;;;;;;;;;;;;;5016747;28;19910;-80
2022/08/24 14:34:56;;;;;;;;;;;;;;;;;;5016157;28;19917;-82
2022/08/24 14:37:22;;;;;;;;;;;;;;;;;;5022200;28;19916;-80
2022/08/24 14:39:49;;;;;;;;;;;;;;;;;;5016649;28;19921;-82
2022/08/24 14:42:14;;;;;;;;;;;;;;;;;;5035849;28;20038;-82
2022/08/24 14:44:41;;;;;;;;;;;;;;;;;;5035753;28;19917;-82
2022/08/24 14:47:07;;;;;;;;;;;;;;;;;;5035543;28;20296;-81
2022/08/24 14:49:33;;;;;;;;;;;;;;;;;;5035877;28;19913;-80
2022/08/24 14:51:59;;;;;;;;;;;;;;;;;;5035785;28;19923;-81
2022/08/24 14:54:25;;;;;;;;;;;;;;;;;;5034983;28;19913;-81
2022/08/24 14:56:52;;;;;;;;;;;;;;;;;;5035136;28;19909;-79
2022/08/24 14:59:19;;;;;;;;;;;;;;;;;;5034158;28;20282;-79
2022/08/24 15:01:45;;;;;;;;;;;;;;;;;;5036219;28;20012;-80
2022/08/24 15:04:11;;;;;;;;;;;;;;;;;;5034754;28;20350;-79
2022/08/24 15:06:37;;;;;;;;;;;;;;;;;;5036025;28;19909;-80
2022/08/24 15:09:03;;;;;;;;;;;;;;;;;;5035704;28;19909;-82
2022/08/24 15:11:29;;;;;;;;;;;;;;;;;;5034556;28;20369;-81